Time;durP1;ratioP1;P1;durP2;ratioP2;P2;SDS_P1;SDS_P2;PMS_P1;PMS_P2;Temp;Humidity;BMP_temperature;BMP_pressure;BME280_temperature;BME280_humidity;BME280_pressure;Samples;Min_cycle;Max_cycle;Signal;HPM_P1;HPM_P2
2022/01/17 00:02:20;;;;;;;20.55;3.35;;;;;;;;;;2420371;55;21043;-77
2022/01/17 00:04:48;;;;;;;20.23;2.85;;;;;;;;;;2420581;55;21099;-78
2022/01/17 00:07:15;;;;;;;28.75;3.50;;;;;;;;;;2419879;55;21099;-79
2022/01/17 00:09:43;;;;;;;17.70;2.85;;;;;;;;;;2684079;51;21020;-77
2022/01/17 00:12:11;;;;;;;23.95;3.40;;;;;;;;;;2420164;55;21044;-78
2022/01/17 00:14:41;;;;;;;17.67;2.78;;;;;;;;;;2420550;55;21040;-78
2022/01/17 00:17:23;;;;;;;17.55;2.70;;;;;;;;;;2420006;55;21028;-78
2022/01/17 00:19:54;;;;;;;20.05;2.65;;;;;;;;;;2420425;55;21040;-78
2022/01/17 00:22:22;;;;;;;29.73;4.37;;;;;;;;;;2420486;55;21079;-79
2022/01/17 00:24:50;;;;;;;22.83;3.80;;;;;;;;;;2420097;55;21524;-78
2022/01/17 00:27:19;;;;;;;23.60;3.58;;;;;;;;;;2684018;51;21087;-77
2022/01/17 00:29:46;;;;;;;24.98;4.20;;;;;;;;;;2419922;55;21078;-79
2022/01/17 00:32:13;;;;;;;23.48;2.80;;;;;;;;;;2420439;55;21129;-79
2022/01/17 00:34:40;;;;;;;27.73;3.53;;;;;;;;;;2420723;55;21111;-79
2022/01/17 00:37:07;;;;;;;21.62;4.07;;;;;;;;;;2420025;55;21096;-78
2022/01/17 00:39:35;;;;;;;19.67;2.85;;;;;;;;;;2683459;51;21044;-77
2022/01/17 00:42:02;;;;;;;13.38;2.85;;;;;;;;;;2683811;51;21027;-79
2022/01/17 00:44:29;;;;;;;23.23;3.47;;;;;;;;;;2684103;51;21059;-77
2022/01/17 00:46:56;;;;;;;21.45;3.92;;;;;;;;;;2420195;55;21103;-78
2022/01/17 00:49:23;;;;;;;21.15;3.28;;;;;;;;;;2419913;55;21586;-79
2022/01/17 00:51:51;;;;;;;17.50;3.37;;;;;;;;;;2420263;55;21167;-79
2022/01/17 00:54:18;;;;;;;22.17;2.85;;;;;;;;;;2683460;51;21048;-80
2022/01/17 00:56:45;;;;;;;12.45;2.65;;;;;;;;;;2420541;55;21023;-80
2022/01/17 00:59:12;;;;;;;26.65;3.10;;;;;;;;;;2683478;51;21087;-81
2022/01/17 01:01:39;;;;;;;15.18;3.15;;;;;;;;;;2683723;51;21112;-78
2022/01/17 01:04:06;;;;;;;17.75;3.87;;;;;;;;;;2420574;55;21112;-80
2022/01/17 01:06:36;;;;;;;16.37;2.97;;;;;;;;;;2420299;55;21082;-80
2022/01/17 01:09:03;;;;;;;20.55;2.70;;;;;;;;;;2420269;55;21127;-78
2022/01/17 01:11:30;;;;;;;13.62;2.55;;;;;;;;;;2683357;51;21080;-76
2022/01/17 01:13:57;;;;;;;14.87;2.42;;;;;;;;;;2420045;55;21071;-78
2022/01/17 01:16:32;;;;;;;16.12;2.50;;;;;;;;;;2419632;55;21020;-77
2022/01/17 01:19:18;;;;;;;20.05;3.97;;;;;;;;;;2683281;51;21102;-78
2022/01/17 01:21:59;;;;;;;18.48;2.67;;;;;;;;;;2419256;55;21043;-78
2022/01/17 01:30:12;;;;;;;20.45;3.83;;;;;;;;;;2349797;56;28422;-74
2022/01/17 01:32:44;;;;;;;18.75;2.87;;;;;;;;;;2375579;56;21491;-74
2022/01/17 01:35:15;;;;;;;18.98;2.78;;;;;;;;;;2375360;56;21090;-74
2022/01/17 01:37:44;;;;;;;20.08;3.65;;;;;;;;;;2375458;56;21039;-74
2022/01/17 01:40:12;;;;;;;15.20;3.47;;;;;;;;;;2374933;56;21042;-75
2022/01/17 01:42:40;;;;;;;27.42;3.00;;;;;;;;;;2375354;56;21126;-75
2022/01/17 01:45:09;;;;;;;17.52;3.20;;;;;;;;;;2375242;56;21098;-74
2022/01/17 01:47:36;;;;;;;17.67;2.97;;;;;;;;;;2375370;56;21027;-74
2022/01/17 01:50:05;;;;;;;21.27;3.00;;;;;;;;;;2374823;56;21034;-74
2022/01/17 01:52:32;;;;;;;17.80;3.12;;;;;;;;;;2375120;56;21118;-74
2022/01/17 01:55:00;;;;;;;24.15;2.95;;;;;;;;;;2375214;56;21030;-74
2022/01/17 01:57:28;;;;;;;24.90;4.28;;;;;;;;;;2374796;56;21035;-73
2022/01/17 01:59:55;;;;;;;22.30;3.83;;;;;;;;;;2374823;56;21170;-74
2022/01/17 02:02:23;;;;;;;20.20;3.87;;;;;;;;;;2375267;56;21608;-75
2022/01/17 02:04:50;;;;;;;19.67;3.30;;;;;;;;;;2375174;56;21330;-74
2022/01/17 02:07:19;;;;;;;17.90;3.17;;;;;;;;;;2373832;56;21046;-74
2022/01/17 02:09:47;;;;;;;13.77;2.50;;;;;;;;;;2374574;56;21042;-74
2022/01/17 02:12:20;;;;;;;15.40;3.22;;;;;;;;;;2375402;56;21093;-75
2022/01/17 02:14:47;;;;;;;;;;;;;;;;;;2378543;56;21027;-74
2022/01/17 02:17:14;;;;;;;24.67;3.40;;;;;;;;;;2628760;52;20083;-75
2022/01/17 02:19:45;;;;;;;27.25;3.83;;;;;;;;;;2374616;56;21173;-75
2022/01/17 02:22:13;;;;;;;13.82;2.58;;;;;;;;;;2374979;56;21063;-74
2022/01/17 02:24:40;;;;;;;16.05;3.75;;;;;;;;;;2375039;56;21027;-74
2022/01/17 02:27:07;;;;;;;20.30;3.47;;;;;;;;;;2628654;52;21585;-74
2022/01/17 02:29:35;;;;;;;23.77;3.67;;;;;;;;;;2628184;52;21090;-75
2022/01/17 02:32:02;;;;;;;15.52;3.37;;;;;;;;;;2375052;56;21035;-74
2022/01/17 02:34:29;;;;;;;17.42;3.20;;;;;;;;;;2628463;52;21545;-74
2022/01/17 02:36:56;;;;;;;19.77;3.60;;;;;;;;;;2374876;56;21051;-74
2022/01/17 02:39:24;;;;;;;18.67;3.37;;;;;;;;;;2374417;56;21106;-74
2022/01/17 02:41:51;;;;;;;20.62;4.70;;;;;;;;;;2374422;56;21577;-74
2022/01/17 02:44:18;;;;;;;16.10;3.62;;;;;;;;;;2373988;56;21106;-74
2022/01/17 02:46:46;;;;;;;26.67;4.15;;;;;;;;;;2374007;56;21047;-74
2022/01/17 02:49:13;;;;;;;15.05;3.08;;;;;;;;;;2373348;56;21663;-75
2022/01/17 02:51:40;;;;;;;20.23;2.95;;;;;;;;;;2374216;56;21110;-75
2022/01/17 02:54:07;;;;;;;22.48;4.68;;;;;;;;;;2373863;56;21058;-75
2022/01/17 02:56:35;;;;;;;23.27;3.47;;;;;;;;;;2373701;56;21039;-74
2022/01/17 02:59:02;;;;;;;25.83;4.05;;;;;;;;;;2626747;52;21534;-74
2022/01/17 03:01:29;;;;;;;20.60;3.50;;;;;;;;;;2374026;56;21086;-75
2022/01/17 03:03:57;;;;;;;19.98;3.45;;;;;;;;;;2373966;56;21030;-75
2022/01/17 03:06:25;;;;;;;25.05;3.55;;;;;;;;;;2373968;56;21051;-75
2022/01/17 03:08:52;;;;;;;22.27;4.05;;;;;;;;;;2372498;56;21898;-74
2022/01/17 03:11:20;;;;;;;25.12;3.75;;;;;;;;;;2373999;56;21042;-74
2022/01/17 03:13:48;;;;;;;14.52;3.10;;;;;;;;;;2373824;56;21043;-74
2022/01/17 03:16:16;;;;;;;17.87;3.33;;;;;;;;;;2374282;56;21042;-75
2022/01/17 03:18:44;;;;;;;28.62;4.07;;;;;;;;;;2373484;56;21098;-75
2022/01/17 03:21:13;;;;;;;25.75;4.00;;;;;;;;;;2373987;56;21047;-74
2022/01/17 03:23:40;;;;;;;22.77;3.15;;;;;;;;;;2373606;56;21111;-74
2022/01/17 03:26:08;;;;;;;20.27;3.50;;;;;;;;;;2373736;56;21110;-75
2022/01/17 03:28:36;;;;;;;21.98;3.03;;;;;;;;;;2374155;56;21039;-74
2022/01/17 03:31:03;;;;;;;14.73;2.75;;;;;;;;;;2626784;52;21537;-76
2022/01/17 03:33:31;;;;;;;16.83;3.78;;;;;;;;;;2374048;56;21117;-75
2022/01/17 03:35:58;;;;;;;24.85;3.53;;;;;;;;;;2374154;56;21119;-76
2022/01/17 03:38:26;;;;;;;16.30;3.55;;;;;;;;;;2374206;56;21043;-74
2022/01/17 03:40:55;;;;;;;26.87;4.22;;;;;;;;;;2627109;52;21562;-74
2022/01/17 03:43:23;;;;;;;19.62;4.03;;;;;;;;;;2627547;52;21074;-75
2022/01/17 03:45:51;;;;;;;21.60;3.67;;;;;;;;;;2374297;56;21138;-76
2022/01/17 03:48:19;;;;;;;21.48;3.15;;;;;;;;;;2374022;56;21558;-74
2022/01/17 03:50:47;;;;;;;16.42;3.17;;;;;;;;;;2627163;52;21038;-74
2022/01/17 03:53:14;;;;;;;17.58;3.33;;;;;;;;;;2374224;56;21616;-75
2022/01/17 03:55:41;;;;;;;26.05;2.83;;;;;;;;;;2374020;56;21549;-75
2022/01/17 03:58:09;;;;;;;18.77;3.53;;;;;;;;;;2627337;52;21039;-74
2022/01/17 04:00:37;;;;;;;23.23;3.42;;;;;;;;;;2373464;56;21051;-74
2022/01/17 04:03:05;;;;;;;15.95;3.20;;;;;;;;;;2374173;56;21043;-74
2022/01/17 04:05:32;;;;;;;27.20;3.70;;;;;;;;;;2373737;56;21126;-75
2022/01/17 04:07:59;;;;;;;19.17;3.78;;;;;;;;;;2374198;56;21043;-74
2022/01/17 04:10:26;;;;;;;22.33;4.57;;;;;;;;;;2373710;56;21110;-75
2022/01/17 04:13:00;;;;;;;25.23;3.35;;;;;;;;;;2374217;56;21046;-74
2022/01/17 04:15:27;;;;;;;28.25;5.00;;;;;;;;;;2373833;56;21591;-74
2022/01/17 04:17:55;;;;;;;13.82;2.85;;;;;;;;;;2373914;56;21584;-74
2022/01/17 04:20:26;;;;;;;25.37;5.12;;;;;;;;;;2373767;56;21040;-74
2022/01/17 04:22:54;;;;;;;34.45;4.70;;;;;;;;;;2374262;56;21038;-74
2022/01/17 04:25:22;;;;;;;25.90;4.15;;;;;;;;;;2374294;56;21130;-74
2022/01/17 04:27:50;;;;;;;24.85;4.75;;;;;;;;;;2374043;56;21522;-74
2022/01/17 04:30:17;;;;;;;16.25;4.07;;;;;;;;;;2626381;52;21051;-75
2022/01/17 04:32:45;;;;;;;23.73;3.95;;;;;;;;;;2374369;56;21086;-73
2022/01/17 04:35:14;;;;;;;27.02;3.17;;;;;;;;;;2346516;54;70407;-78
2022/01/17 04:37:41;;;;;;;14.10;3.15;;;;;;;;;;2272068;59;21126;-80
2022/01/17 04:40:11;;;;;;;28.05;4.32;;;;;;;;;;2271083;59;21114;-76
2022/01/17 04:42:44;;;;;;;25.23;3.75;;;;;;;;;;2503722;55;21770;-75
2022/01/17 04:45:13;;;;;;;19.50;3.00;;;;;;;;;;2512611;54;21045;-78
2022/01/17 04:47:42;;;;;;;19.12;2.97;;;;;;;;;;2298251;58;21056;-76
2022/01/17 04:50:10;;;;;;;22.37;3.42;;;;;;;;;;2534399;54;21139;-77
2022/01/17 04:52:37;;;;;;;24.48;3.80;;;;;;;;;;2534849;54;21052;-77
2022/01/17 04:55:06;;;;;;;27.48;4.32;;;;;;;;;;2297309;58;21312;-77
2022/01/17 04:57:34;;;;;;;22.48;3.75;;;;;;;;;;2298082;58;21240;-76
2022/01/17 05:00:01;;;;;;;26.15;3.47;;;;;;;;;;2297958;58;21115;-76
2022/01/17 05:02:28;;;;;;;21.83;3.50;;;;;;;;;;2298029;58;21056;-78
2022/01/17 05:04:55;;;;;;;9.70;3.30;;;;;;;;;;2297212;58;21048;-76
2022/01/17 05:07:22;;;;;;;26.40;3.90;;;;;;;;;;2298199;58;21132;-77
2022/01/17 05:09:49;;;;;;;17.92;3.53;;;;;;;;;;2533430;54;21056;-78
2022/01/17 05:12:17;;;;;;;23.75;3.12;;;;;;;;;;2297010;58;21060;-77
2022/01/17 05:14:48;;;;;;;27.17;4.45;;;;;;;;;;2296951;58;21242;-77
2022/01/17 05:17:38;;;;;;;24.33;4.18;;;;;;;;;;2534331;54;21048;-78
2022/01/17 05:20:08;;;;;;;29.65;3.90;;;;;;;;;;2297960;58;21134;-77
2022/01/17 05:22:36;;;;;;;17.12;3.17;;;;;;;;;;2534240;54;21060;-77
2022/01/17 05:25:07;;;;;;;19.85;3.83;;;;;;;;;;2298103;58;21143;-78
2022/01/17 05:27:35;;;;;;;21.55;3.50;;;;;;;;;;2298250;58;21620;-78
2022/01/17 05:30:03;;;;;;;33.50;3.80;;;;;;;;;;2533724;54;21640;-77
2022/01/17 05:32:30;;;;;;;18.83;3.58;;;;;;;;;;2297994;58;21092;-77
2022/01/17 05:34:57;;;;;;;25.25;4.25;;;;;;;;;;2297949;58;21040;-79
2022/01/17 05:37:24;;;;;;;18.00;4.15;;;;;;;;;;2296372;58;21063;-78
2022/01/17 05:39:52;;;;;;;28.55;5.12;;;;;;;;;;2297540;58;21053;-81
2022/01/17 05:42:20;;;;;;;20.98;4.10;;;;;;;;;;2535147;54;21131;-79
2022/01/17 05:44:47;;;;;;;27.05;3.95;;;;;;;;;;2298647;58;21127;-78
2022/01/17 05:47:15;;;;;;;26.42;4.32;;;;;;;;;;2297961;58;21036;-79
2022/01/17 05:49:42;;;;;;;33.63;7.30;;;;;;;;;;2297742;58;21136;-78
2022/01/17 05:52:09;;;;;;;26.45;4.95;;;;;;;;;;2298203;58;21211;-78
2022/01/17 05:54:36;;;;;;;26.20;3.75;;;;;;;;;;2298379;58;21616;-80
2022/01/17 05:57:04;;;;;;;24.58;4.22;;;;;;;;;;2298584;58;21104;-78
2022/01/17 05:59:31;;;;;;;18.87;3.87;;;;;;;;;;2534369;54;21071;-78
2022/01/17 06:01:59;;;;;;;34.35;5.37;;;;;;;;;;2298205;58;21120;-78
2022/01/17 06:04:26;;;;;;;27.95;5.05;;;;;;;;;;2298517;58;21107;-78
2022/01/17 06:06:55;;;;;;;28.33;4.07;;;;;;;;;;2534820;54;21128;-79
2022/01/17 06:09:23;;;;;;;30.77;4.22;;;;;;;;;;2298414;58;21040;-78
2022/01/17 06:11:50;;;;;;;24.98;5.18;;;;;;;;;;2298399;58;21057;-79
2022/01/17 06:14:18;;;;;;;31.42;5.30;;;;;;;;;;2298105;58;21059;-78
2022/01/17 06:16:46;;;;;;;22.20;3.85;;;;;;;;;;2298226;58;21132;-78
2022/01/17 06:19:13;;;;;;;31.80;4.62;;;;;;;;;;2298315;58;21028;-79
2022/01/17 06:21:40;;;;;;;30.85;4.43;;;;;;;;;;2298369;58;21107;-78
2022/01/17 06:24:09;;;;;;;28.70;5.50;;;;;;;;;;2298527;58;21179;-77
2022/01/17 06:26:37;;;;;;;23.62;4.65;;;;;;;;;;2298299;58;21055;-79
2022/01/17 06:29:05;;;;;;;16.10;3.70;;;;;;;;;;2534928;54;22166;-78
2022/01/17 06:31:32;;;;;;;30.58;4.35;;;;;;;;;;2535171;54;21120;-79
2022/01/17 06:33:59;;;;;;;22.73;4.12;;;;;;;;;;2535743;54;21592;-78
2022/01/17 06:36:26;;;;;;;30.20;4.35;;;;;;;;;;2298644;58;21545;-78
2022/01/17 06:38:53;;;;;;;24.25;3.62;;;;;;;;;;2298771;58;21119;-79
2022/01/17 06:41:21;;;;;;;28.73;4.32;;;;;;;;;;2299052;58;21032;-79
2022/01/17 06:43:48;;;;;;;32.38;4.97;;;;;;;;;;2535358;54;21115;-77
2022/01/17 06:46:16;;;;;;;23.30;4.43;;;;;;;;;;2535111;54;21160;-81
2022/01/17 06:48:46;;;;;;;29.08;5.03;;;;;;;;;;2535503;54;21036;-77
2022/01/17 06:51:14;;;;;;;35.25;4.93;;;;;;;;;;2536104;54;21541;-77
2022/01/17 06:53:41;;;;;;;36.60;6.47;;;;;;;;;;2299902;58;21040;-79
2022/01/17 06:56:09;;;;;;;30.02;4.87;;;;;;;;;;2299545;58;21104;-79
2022/01/17 06:58:36;;;;;;;23.80;4.57;;;;;;;;;;2535994;54;21055;-81
2022/01/17 07:01:04;;;;;;;29.67;5.20;;;;;;;;;;2298817;58;21044;-79
2022/01/17 07:03:31;;;;;;;29.40;5.12;;;;;;;;;;2299327;58;21588;-77
2022/01/17 07:05:58;;;;;;;27.62;4.72;;;;;;;;;;2299505;58;21088;-77
2022/01/17 07:08:26;;;;;;;34.67;5.30;;;;;;;;;;2535761;54;21123;-78
2022/01/17 07:10:53;;;;;;;25.65;3.58;;;;;;;;;;2535027;54;21229;-80
2022/01/17 07:13:20;;;;;;;27.77;5.07;;;;;;;;;;2298912;58;21139;-77
2022/01/17 07:15:47;;;;;;;27.23;4.80;;;;;;;;;;2298746;58;21072;-80
2022/01/17 07:18:14;;;;;;;34.92;4.90;;;;;;;;;;2298946;58;21048;-77
2022/01/17 07:20:42;;;;;;;27.00;4.78;;;;;;;;;;2298322;58;21052;-80
2022/01/17 07:23:09;;;;;;;22.23;5.18;;;;;;;;;;2298854;58;21044;-77
2022/01/17 07:25:38;;;;;;;31.65;4.65;;;;;;;;;;2535169;54;21564;-77
2022/01/17 07:28:07;;;;;;;23.38;4.30;;;;;;;;;;2298653;58;21135;-77
2022/01/17 07:30:34;;;;;;;32.80;5.18;;;;;;;;;;2298653;58;22151;-77
2022/01/17 07:33:01;;;;;;;25.35;4.15;;;;;;;;;;2298391;58;21639;-77
2022/01/17 07:35:29;;;;;;;33.33;4.95;;;;;;;;;;2298660;58;21056;-80
2022/01/17 07:37:56;;;;;;;39.65;6.07;;;;;;;;;;2298391;58;21048;-78
2022/01/17 07:40:23;;;;;;;27.37;5.45;;;;;;;;;;2299000;58;21056;-80
2022/01/17 07:42:50;;;;;;;38.75;5.78;;;;;;;;;;2298929;58;21067;-78
2022/01/17 07:45:19;;;;;;;32.10;4.65;;;;;;;;;;2299102;58;21132;-79
2022/01/17 07:48:07;;;;;;;31.10;5.10;;;;;;;;;;2299235;58;21051;-79
2022/01/17 07:50:35;;;;;;;41.15;4.62;;;;;;;;;;2298966;58;21048;-79
2022/01/17 07:53:02;;;;;;;37.35;5.57;;;;;;;;;;2298777;58;21131;-78
2022/01/17 07:55:29;;;;;;;25.35;4.15;;;;;;;;;;2298549;58;21525;-79
2022/01/17 07:57:56;;;;;;;29.02;4.25;;;;;;;;;;2535507;54;21099;-79
2022/01/17 08:00:25;;;;;;;26.02;3.72;;;;;;;;;;2298449;58;21100;-79
2022/01/17 08:02:55;;;;;;;25.52;4.80;;;;;;;;;;2298840;58;21116;-79
2022/01/17 08:05:23;;;;;;;25.42;4.55;;;;;;;;;;2298556;58;21556;-79
2022/01/17 08:07:50;;;;;;;21.00;3.87;;;;;;;;;;2298674;58;21123;-78
2022/01/17 08:10:17;;;;;;;29.12;4.90;;;;;;;;;;2298046;58;21056;-78
2022/01/17 08:12:46;;;;;;;21.95;4.93;;;;;;;;;;2298857;58;21326;-79
2022/01/17 08:15:13;;;;;;;19.30;4.80;;;;;;;;;;2534831;54;21553;-78
2022/01/17 08:17:41;;;;;;;28.25;5.43;;;;;;;;;;2534375;54;21040;-77
2022/01/17 08:20:09;;;;;;;21.83;4.25;;;;;;;;;;2297746;58;21052;-80
2022/01/17 08:22:36;;;;;;;21.10;4.45;;;;;;;;;;2534452;54;21115;-78
2022/01/17 08:25:04;;;;;;;16.85;3.45;;;;;;;;;;2298797;58;21091;-80
2022/01/17 08:27:31;;;;;;;26.65;6.20;;;;;;;;;;2298695;58;21123;-77
2022/01/17 08:30:00;;;;;;;22.40;4.05;;;;;;;;;;2533539;54;21155;-77
2022/01/17 08:32:29;;;;;;;20.35;4.45;;;;;;;;;;2534531;54;21147;-78
2022/01/17 08:34:57;;;;;;;14.50;2.95;;;;;;;;;;2298643;58;21151;-77
2022/01/17 08:37:24;;;;;;;24.73;4.07;;;;;;;;;;2298488;58;21722;-80
2022/01/17 08:39:52;;;;;;;21.98;3.72;;;;;;;;;;2298211;58;21039;-78
2022/01/17 08:42:19;;;;;;;27.33;4.90;;;;;;;;;;2298742;58;21615;-78
2022/01/17 08:44:49;;;;;;;22.65;3.83;;;;;;;;;;2534774;54;21052;-77
2022/01/17 08:47:17;;;;;;;17.50;3.85;;;;;;;;;;2298710;58;21052;-77
2022/01/17 08:49:45;;;;;;;16.42;3.62;;;;;;;;;;2533776;54;21092;-77
2022/01/17 08:52:13;;;;;;;37.17;4.18;;;;;;;;;;2533988;54;21155;-78
2022/01/17 08:54:40;;;;;;;30.88;5.47;;;;;;;;;;2297913;58;21143;-78
2022/01/17 08:57:07;;;;;;;20.92;4.85;;;;;;;;;;2298565;58;21583;-78
2022/01/17 08:59:34;;;;;;;26.87;4.03;;;;;;;;;;2297987;58;21064;-78
2022/01/17 09:02:01;;;;;;;19.98;4.10;;;;;;;;;;2298582;58;21107;-78
2022/01/17 09:04:28;;;;;;;18.10;3.58;;;;;;;;;;2298608;58;21047;-78
2022/01/17 09:06:56;;;;;;;17.15;3.83;;;;;;;;;;2298779;58;21059;-78
2022/01/17 09:09:23;;;;;;;16.73;2.78;;;;;;;;;;2535199;54;21040;-79
2022/01/17 09:11:50;;;;;;;21.65;3.37;;;;;;;;;;2299182;58;21069;-78
2022/01/17 09:14:17;;;;;;;9.85;2.62;;;;;;;;;;2298721;58;21120;-78
2022/01/17 09:16:45;;;;;;;18.00;2.47;;;;;;;;;;2534587;54;21533;-79
2022/01/17 09:19:12;;;;;;;12.05;2.60;;;;;;;;;;2297716;58;21596;-78
2022/01/17 09:21:41;;;;;;;16.45;3.30;;;;;;;;;;2298123;58;21040;-79
2022/01/17 09:24:08;;;;;;;15.05;2.80;;;;;;;;;;2534930;54;21101;-78
2022/01/17 09:26:36;;;;;;;14.38;3.45;;;;;;;;;;2534794;54;21052;-79
2022/01/17 09:29:03;;;;;;;16.25;2.50;;;;;;;;;;2534437;54;21124;-77
2022/01/17 09:31:30;;;;;;;12.65;2.72;;;;;;;;;;2298038;58;21148;-79
2022/01/17 09:33:57;;;;;;;19.60;2.55;;;;;;;;;;2298298;58;21101;-78
2022/01/17 09:36:28;;;;;;;11.98;1.92;;;;;;;;;;2297933;58;21047;-77
2022/01/17 09:38:56;;;;;;;10.07;2.53;;;;;;;;;;2534514;54;21088;-78
2022/01/17 09:41:23;;;;;;;16.67;2.65;;;;;;;;;;2534238;54;21108;-78
2022/01/17 09:43:51;;;;;;;13.30;4.25;;;;;;;;;;2298001;58;21123;-78
2022/01/17 09:46:21;;;;;;;16.10;2.42;;;;;;;;;;2297832;58;21596;-78
2022/01/17 09:48:50;;;;;;;14.20;3.28;;;;;;;;;;2297256;58;21140;-80
2022/01/17 09:51:20;;;;;;;13.13;2.50;;;;;;;;;;2534490;54;21361;-79
2022/01/17 09:53:51;;;;;;;8.68;2.10;;;;;;;;;;2534916;54;22549;-77
2022/01/17 09:56:21;;;;;;;19.98;2.80;;;;;;;;;;2535222;54;21036;-77
2022/01/17 09:58:48;;;;;;;10.18;2.00;;;;;;;;;;2297624;58;21124;-77
2022/01/17 10:01:15;;;;;;;18.92;2.22;;;;;;;;;;2297991;58;21116;-80
2022/01/17 10:03:42;;;;;;;16.80;2.17;;;;;;;;;;2298092;58;21089;-80
2022/01/17 10:06:10;;;;;;;10.43;2.03;;;;;;;;;;2298763;58;21057;-81
2022/01/17 10:08:37;;;;;;;16.67;2.95;;;;;;;;;;2298042;58;21056;-81
2022/01/17 10:11:13;;;;;;;9.82;3.10;;;;;;;;;;2298590;58;21115;-79
2022/01/17 10:13:44;;;;;;;6.68;1.55;;;;;;;;;;2535489;54;21127;-80
2022/01/17 10:16:12;;;;;;;17.30;2.55;;;;;;;;;;2535651;54;21032;-80
2022/01/17 10:18:40;;;;;;;18.02;2.40;;;;;;;;;;2299243;58;21100;-80
2022/01/17 10:21:12;;;;;;;38.53;5.95;;;;;;;;;;2535554;54;21099;-79
2022/01/17 10:24:06;;;;;;;17.65;3.62;;;;;;;;;;2299290;58;21103;-79
2022/01/17 10:35:24;;;;;;;22.98;3.00;;;;;;;;;;2317640;54;69587;-76
2022/01/17 10:38:02;;;;;;;14.60;2.28;;;;;;;;;;2304161;58;21069;-79
2022/01/17 10:40:30;;;;;;;11.23;2.00;;;;;;;;;;2321500;57;21063;-78
2022/01/17 10:43:00;;;;;;;17.50;2.45;;;;;;;;;;2574830;54;21625;-78
2022/01/17 10:45:33;;;;;;;16.25;2.55;;;;;;;;;;2330894;57;21123;-77
2022/01/17 10:48:01;;;;;;;23.08;2.72;;;;;;;;;;2574818;54;21087;-76
2022/01/17 10:50:30;;;;;;;9.93;2.67;;;;;;;;;;2330770;57;21146;-77
2022/01/17 10:52:58;;;;;;;17.42;2.90;;;;;;;;;;2331122;57;21036;-77
2022/01/17 10:55:27;;;;;;;12.35;2.65;;;;;;;;;;2330640;57;21059;-78
2022/01/17 10:57:56;;;;;;;14.82;2.80;;;;;;;;;;2331327;57;21138;-78
2022/01/17 11:00:25;;;;;;;14.65;3.60;;;;;;;;;;2330626;57;21063;-77
2022/01/17 11:02:54;;;;;;;17.75;3.35;;;;;;;;;;2331278;57;21111;-78
2022/01/17 11:05:22;;;;;;;18.95;3.30;;;;;;;;;;2573715;54;21062;-76
2022/01/17 11:07:51;;;;;;;20.92;3.92;;;;;;;;;;2331198;57;21966;-77
2022/01/17 11:10:19;;;;;;;15.15;3.08;;;;;;;;;;2330785;57;21063;-78
2022/01/17 11:12:47;;;;;;;19.42;2.92;;;;;;;;;;2331346;57;21047;-77
2022/01/17 11:15:15;;;;;;;16.73;3.30;;;;;;;;;;2331176;57;21151;-77
2022/01/17 11:17:51;;;;;;;23.92;4.10;;;;;;;;;;2574884;54;21574;-74
2022/01/17 11:20:19;;;;;;;21.65;3.72;;;;;;;;;;2574180;53;21135;-74
2022/01/17 11:22:48;;;;;;;16.83;3.95;;;;;;;;;;2331118;57;21063;-77
2022/01/17 11:25:16;;;;;;;27.10;4.12;;;;;;;;;;2330695;57;21044;-77
2022/01/17 11:27:43;;;;;;;28.08;4.65;;;;;;;;;;2331075;57;21059;-76
2022/01/17 11:30:11;;;;;;;18.25;3.03;;;;;;;;;;2574565;53;21051;-78
2022/01/17 11:32:39;;;;;;;15.60;3.40;;;;;;;;;;2574890;54;21044;-77
2022/01/17 11:35:08;;;;;;;13.52;3.50;;;;;;;;;;2331377;57;21171;-78
2022/01/17 11:37:37;;;;;;;29.50;4.47;;;;;;;;;;2331327;57;21039;-77
2022/01/17 11:40:07;;;;;;;17.62;3.25;;;;;;;;;;2330298;57;21641;-77
2022/01/17 11:42:39;;;;;;;17.67;4.37;;;;;;;;;;2330689;57;21125;-76
2022/01/17 11:45:33;;;;;;;30.02;5.28;;;;;;;;;;2330558;57;21087;-76
2022/01/17 11:48:01;;;;;;;30.58;4.55;;;;;;;;;;2331152;57;21648;-74
2022/01/17 11:50:33;;;;;;;23.67;4.20;;;;;;;;;;2573922;53;21119;-77
2022/01/17 11:53:01;;;;;;;29.08;4.75;;;;;;;;;;2330496;57;21163;-73
2022/01/17 11:55:44;;;;;;;24.90;4.50;;;;;;;;;;2330441;57;21122;-74
2022/01/17 11:58:18;;;;;;;29.30;4.60;;;;;;;;;;2330381;57;21059;-76
2022/01/17 12:00:46;;;;;;;25.60;4.35;;;;;;;;;;2330386;57;21542;-77
2022/01/17 12:03:20;;;;;;;22.62;4.57;;;;;;;;;;2574607;54;21067;-76
2022/01/17 12:05:47;;;;;;;27.55;5.60;;;;;;;;;;2574319;54;21059;-73
2022/01/17 12:08:19;;;;;;;29.17;7.43;;;;;;;;;;2330969;57;21044;-77
2022/01/17 12:10:47;;;;;;;26.08;6.20;;;;;;;;;;2330284;57;21047;-75
2022/01/17 12:13:39;;;;;;;23.95;6.25;;;;;;;;;;2330990;57;21074;-76
2022/01/17 12:16:14;;;;;;;24.25;6.93;;;;;;;;;;2574422;54;21079;-76
2022/01/17 12:18:42;;;;;;;29.55;6.57;;;;;;;;;;2331409;57;21066;-76
2022/01/17 12:21:24;;;;;;;22.48;4.70;;;;;;;;;;2574753;53;21051;-78
2022/01/17 12:23:51;;;;;;;23.50;5.22;;;;;;;;;;2331701;57;21122;-78
2022/01/17 12:26:29;;;;;;;26.75;6.25;;;;;;;;;;2574470;54;21079;-75
2022/01/17 12:28:57;;;;;;;28.10;6.18;;;;;;;;;;2574663;53;21134;-77
2022/01/17 12:31:41;;;;;;;19.12;5.30;;;;;;;;;;2331455;57;21055;-74
2022/01/17 12:34:16;;;;;;;27.92;5.87;;;;;;;;;;2331437;57;21087;-78
2022/01/17 12:36:46;;;;;;;28.08;7.28;;;;;;;;;;2331012;57;21047;-78
2022/01/17 12:39:16;;;;;;;24.15;5.07;;;;;;;;;;2574377;53;21138;-77
2022/01/17 12:41:44;;;;;;;31.90;5.32;;;;;;;;;;2331002;57;21071;-77
2022/01/17 12:44:20;;;;;;;26.10;4.65;;;;;;;;;;2331521;57;21062;-75
2022/01/17 12:46:48;;;;;;;33.88;5.18;;;;;;;;;;2573057;54;21043;-74
2022/01/17 12:49:16;;;;;;;25.10;5.53;;;;;;;;;;2329228;57;21055;-74
2022/01/17 12:51:44;;;;;;;35.50;4.40;;;;;;;;;;2330257;57;21549;-76
2022/01/17 12:54:11;;;;;;;29.70;4.43;;;;;;;;;;2330288;57;21083;-77
2022/01/17 12:56:41;;;;;;;22.73;4.18;;;;;;;;;;2573302;54;21059;-77
2022/01/17 12:59:09;;;;;;;19.25;4.32;;;;;;;;;;2329884;57;21055;-78
2022/01/17 13:01:40;;;;;;;27.67;5.15;;;;;;;;;;2330062;57;21135;-77
2022/01/17 13:04:11;;;;;;;17.62;3.80;;;;;;;;;;2330180;57;21138;-78
2022/01/17 13:06:39;;;;;;;29.33;5.55;;;;;;;;;;2330208;57;21135;-75
2022/01/17 13:09:10;;;;;;;28.45;5.05;;;;;;;;;;2330052;57;21146;-76
2022/01/17 13:11:40;;;;;;;25.67;5.93;;;;;;;;;;2330541;57;21142;-76
2022/01/17 13:14:07;;;;;;;25.27;5.50;;;;;;;;;;2573366;54;21048;-73
2022/01/17 13:16:34;;;;;;;28.30;4.28;;;;;;;;;;2330429;57;21047;-76
2022/01/17 13:19:03;;;;;;;29.30;6.45;;;;;;;;;;2328831;57;21134;-76
2022/01/17 13:21:31;;;;;;;29.05;4.55;;;;;;;;;;2329435;57;21430;-76
2022/01/17 13:24:01;;;;;;;25.98;4.90;;;;;;;;;;2330259;57;21047;-76
2022/01/17 13:26:30;;;;;;;33.13;5.20;;;;;;;;;;2330079;57;21059;-75
2022/01/17 13:28:59;;;;;;;27.58;4.25;;;;;;;;;;2329828;57;21545;-76
2022/01/17 13:31:27;;;;;;;22.92;6.15;;;;;;;;;;2329831;57;21051;-75
2022/01/17 13:33:55;;;;;;;32.50;5.53;;;;;;;;;;2329847;57;21059;-76
2022/01/17 13:36:24;;;;;;;27.35;5.00;;;;;;;;;;2329980;57;21058;-75
2022/01/17 13:39:05;;;;;;;15.90;4.32;;;;;;;;;;2329541;57;21055;-76
2022/01/17 13:41:33;;;;;;;24.50;4.70;;;;;;;;;;2329950;57;21609;-77
2022/01/17 13:44:00;;;;;;;31.83;4.85;;;;;;;;;;2329821;57;21150;-76
2022/01/17 13:46:28;;;;;;;19.85;4.35;;;;;;;;;;2331081;57;21629;-77
2022/01/17 13:48:55;;;;;;;17.10;3.75;;;;;;;;;;2573271;53;21370;-75
2022/01/17 13:51:23;;;;;;;17.80;4.47;;;;;;;;;;2328773;57;21051;-76
2022/01/17 13:53:50;;;;;;;28.67;5.82;;;;;;;;;;2574586;54;21179;-78
2022/01/17 13:56:18;;;;;;;22.92;4.37;;;;;;;;;;2331243;57;21725;-78
2022/01/17 13:58:46;;;;;;;23.87;4.37;;;;;;;;;;2573298;54;21127;-76
2022/01/17 14:01:14;;;;;;;20.80;4.32;;;;;;;;;;2573804;53;21055;-76
2022/01/17 14:03:41;;;;;;;28.48;6.00;;;;;;;;;;2330249;57;21079;-76
2022/01/17 14:06:09;;;;;;;20.42;4.45;;;;;;;;;;2574162;54;21047;-76
2022/01/17 14:08:41;;;;;;;30.00;4.53;;;;;;;;;;2573163;54;21071;-77
2022/01/17 14:11:09;;;;;;;34.08;4.50;;;;;;;;;;2330186;57;21154;-76
2022/01/17 14:13:37;;;;;;;27.25;5.28;;;;;;;;;;2330148;57;21134;-77
2022/01/17 14:16:24;;;;;;;18.33;4.30;;;;;;;;;;2330588;57;21153;-77
2022/01/17 14:18:52;;;;;;;38.63;7.35;;;;;;;;;;2329955;57;21059;-75
2022/01/17 14:21:24;;;;;;;23.77;4.43;;;;;;;;;;2330408;57;21561;-76
2022/01/17 14:24:04;;;;;;;36.85;6.10;;;;;;;;;;2330866;57;21162;-76
2022/01/17 14:26:31;;;;;;;26.65;4.93;;;;;;;;;;2572711;54;21059;-75
2022/01/17 14:28:59;;;;;;;24.08;4.57;;;;;;;;;;2330054;57;21656;-77
2022/01/17 14:31:31;;;;;;;25.50;6.22;;;;;;;;;;2330392;57;21161;-77
2022/01/17 14:34:08;;;;;;;34.20;5.50;;;;;;;;;;2330735;57;21135;-78
2022/01/17 14:36:35;;;;;;;24.65;4.90;;;;;;;;;;2331164;57;21098;-79
2022/01/17 14:39:05;;;;;;;22.45;4.80;;;;;;;;;;2574032;53;21079;-78
2022/01/17 14:41:35;;;;;;;27.48;4.65;;;;;;;;;;2575190;54;21167;-75
2022/01/17 14:44:04;;;;;;;23.40;4.70;;;;;;;;;;2574172;54;21059;-75
2022/01/17 14:46:31;;;;;;;27.52;5.35;;;;;;;;;;2574210;54;21055;-78
2022/01/17 14:48:58;;;;;;;31.05;4.80;;;;;;;;;;2574408;53;21082;-78
2022/01/17 14:51:28;;;;;;;21.62;4.87;;;;;;;;;;2331557;57;21138;-79
2022/01/17 14:54:05;;;;;;;16.80;4.10;;;;;;;;;;2575199;54;21075;-78
2022/01/17 14:59:34;;;;;;;30.33;5.35;;;;;;;;;;2330000;57;21047;-77